sensor_id;sensor_type;location;lat;lon;timestamp;P1;durP1;ratioP1;P2;durP2;ratioP2
9176;SDS011;4623;54.310;10.112;2023-02-10T00:01:11;29.17;;;13.60;;
9176;SDS011;4623;54.310;10.112;2023-02-10T00:03:38;27.37;;;13.10;;
9176;SDS011;4623;54.310;10.112;2023-02-10T00:06:04;21.10;;;12.70;;
9176;SDS011;4623;54.310;10.112;2023-02-10T00:08:31;26.10;;;13.03;;
9176;SDS011;4623;54.310;10.112;2023-02-10T00:10:57;29.07;;;12.90;;
9176;SDS011;4623;54.310;10.112;2023-02-10T00:13:24;23.40;;;12.60;;
9176;SDS011;4623;54.310;10.112;2023-02-10T00:15:50;22.23;;;12.27;;
9176;SDS011;4623;54.310;10.112;2023-02-10T00:18:16;25.70;;;12.23;;
9176;SDS011;4623;54.310;10.112;2023-02-10T00:20:42;24.03;;;11.70;;
9176;SDS011;4623;54.310;10.112;2023-02-10T00:23:08;25.93;;;13.07;;
9176;SDS011;4623;54.310;10.112;2023-02-10T00:25:36;26.47;;;13.07;;
9176;SDS011;4623;54.310;10.112;2023-02-10T00:28:02;29.23;;;13.07;;
9176;SDS011;4623;54.310;10.112;2023-02-10T00:30:28;28.33;;;13.20;;
9176;SDS011;4623;54.310;10.112;2023-02-10T00:32:54;21.00;;;11.00;;
9176;SDS011;4623;54.310;10.112;2023-02-10T00:35:20;30.03;;;11.93;;
9176;SDS011;4623;54.310;10.112;2023-02-10T00:37:46;20.90;;;11.50;;
9176;SDS011;4623;54.310;10.112;2023-02-10T00:40:11;28.53;;;11.17;;
9176;SDS011;4623;54.310;10.112;2023-02-10T00:42:37;22.70;;;12.00;;
9176;SDS011;4623;54.310;10.112;2023-02-10T00:45:03;27.10;;;11.70;;
9176;SDS011;4623;54.310;10.112;2023-02-10T00:47:29;19.83;;;10.67;;
9176;SDS011;4623;54.310;10.112;2023-02-10T00:49:54;18.77;;;10.63;;
9176;SDS011;4623;54.310;10.112;2023-02-10T00:52:20;17.67;;;10.20;;
9176;SDS011;4623;54.310;10.112;2023-02-10T00:54:46;22.77;;;12.30;;
9176;SDS011;4623;54.310;10.112;2023-02-10T00:57:12;24.50;;;10.37;;
9176;SDS011;4623;54.310;10.112;2023-02-10T00:59:37;24.13;;;10.80;;
9176;SDS011;4623;54.310;10.112;2023-02-10T01:02:03;27.30;;;11.03;;
9176;SDS011;4623;54.310;10.112;2023-02-10T01:04:28;19.83;;;10.80;;
9176;SDS011;4623;54.310;10.112;2023-02-10T01:06:54;25.97;;;8.90;;
9176;SDS011;4623;54.310;10.112;2023-02-10T01:09:19;17.13;;;9.67;;
9176;SDS011;4623;54.310;10.112;2023-02-10T01:11:45;20.60;;;9.73;;
9176;SDS011;4623;54.310;10.112;2023-02-10T01:14:10;23.37;;;9.50;;
9176;SDS011;4623;54.310;10.112;2023-02-10T01:16:36;25.70;;;9.90;;
9176;SDS011;4623;54.310;10.112;2023-02-10T01:19:02;21.90;;;8.57;;
9176;SDS011;4623;54.310;10.112;2023-02-10T01:21:28;24.10;;;9.57;;
9176;SDS011;4623;54.310;10.112;2023-02-10T01:23:53;16.73;;;8.87;;
9176;SDS011;4623;54.310;10.112;2023-02-10T01:26:20;18.87;;;9.13;;
9176;SDS011;4623;54.310;10.112;2023-02-10T01:28:46;19.43;;;8.03;;
9176;SDS011;4623;54.310;10.112;2023-02-10T01:31:12;19.00;;;10.17;;
9176;SDS011;4623;54.310;10.112;2023-02-10T01:33:40;17.70;;;7.97;;
9176;SDS011;4623;54.310;10.112;2023-02-10T01:36:07;18.83;;;8.70;;
9176;SDS011;4623;54.310;10.112;2023-02-10T01:38:34;22.73;;;8.90;;
9176;SDS011;4623;54.310;10.112;2023-02-10T01:41:00;19.50;;;8.47;;
9176;SDS011;4623;54.310;10.112;2023-02-10T01:43:26;25.77;;;10.50;;
9176;SDS011;4623;54.310;10.112;2023-02-10T01:45:52;24.00;;;9.17;;
9176;SDS011;4623;54.310;10.112;2023-02-10T01:48:17;23.20;;;9.20;;
9176;SDS011;4623;54.310;10.112;2023-02-10T01:53:16;20.63;;;8.70;;
9176;SDS011;4623;54.310;10.112;2023-02-10T01:55:43;17.57;;;8.23;;
9176;SDS011;4623;54.310;10.112;2023-02-10T01:58:12;18.90;;;7.30;;
9176;SDS011;4623;54.310;10.112;2023-02-10T02:00:39;15.93;;;7.00;;
9176;SDS011;4623;54.310;10.112;2023-02-10T02:03:05;29.67;;;8.80;;
9176;SDS011;4623;54.310;10.112;2023-02-10T02:05:33;14.90;;;7.27;;
9176;SDS011;4623;54.310;10.112;2023-02-10T02:08:07;24.67;;;8.03;;
9176;SDS011;4623;54.310;10.112;2023-02-10T02:13:12;17.13;;;6.23;;
9176;SDS011;4623;54.310;10.112;2023-02-10T02:15:47;19.43;;;6.63;;
9176;SDS011;4623;54.310;10.112;2023-02-10T02:21:08;19.17;;;7.07;;
9176;SDS011;4623;54.310;10.112;2023-02-10T02:26:56;18.83;;;5.87;;
9176;SDS011;4623;54.310;10.112;2023-02-10T02:30:05;15.10;;;6.17;;
9176;SDS011;4623;54.310;10.112;2023-02-10T02:32:54;28.20;;;8.03;;
9176;SDS011;4623;54.310;10.112;2023-02-10T02:35:26;13.63;;;5.23;;
9176;SDS011;4623;54.310;10.112;2023-02-10T02:37:55;19.27;;;5.83;;
9176;SDS011;4623;54.310;10.112;2023-02-10T02:40:21;20.17;;;6.27;;
9176;SDS011;4623;54.310;10.112;2023-02-10T02:42:46;17.23;;;5.97;;
9176;SDS011;4623;54.310;10.112;2023-02-10T02:58:13;22.63;;;6.63;;
9176;SDS011;4623;54.310;10.112;2023-02-10T03:00:42;18.33;;;5.67;;
9176;SDS011;4623;54.310;10.112;2023-02-10T03:03:09;13.70;;;4.80;;
9176;SDS011;4623;54.310;10.112;2023-02-10T03:05:35;13.47;;;5.27;;
9176;SDS011;4623;54.310;10.112;2023-02-10T03:08:01;16.43;;;5.27;;
9176;SDS011;4623;54.310;10.112;2023-02-10T03:10:26;16.47;;;5.10;;
9176;SDS011;4623;54.310;10.112;2023-02-10T03:12:52;15.90;;;5.43;;
9176;SDS011;4623;54.310;10.112;2023-02-10T03:15:18;15.77;;;5.60;;
9176;SDS011;4623;54.310;10.112;2023-02-10T03:17:43;19.53;;;5.43;;
9176;SDS011;4623;54.310;10.112;2023-02-10T03:20:09;15.27;;;5.40;;
9176;SDS011;4623;54.310;10.112;2023-02-10T03:22:35;11.17;;;4.53;;
9176;SDS011;4623;54.310;10.112;2023-02-10T03:25:00;12.77;;;4.73;;
9176;SDS011;4623;54.310;10.112;2023-02-10T03:27:26;15.40;;;4.43;;
9176;SDS011;4623;54.310;10.112;2023-02-10T03:29:52;17.00;;;5.30;;
9176;SDS011;4623;54.310;10.112;2023-02-10T03:32:18;16.23;;;5.50;;
9176;SDS011;4623;54.310;10.112;2023-02-10T03:34:44;15.50;;;5.27;;
9176;SDS011;4623;54.310;10.112;2023-02-10T03:37:10;20.57;;;6.07;;
9176;SDS011;4623;54.310;10.112;2023-02-10T03:39:36;21.17;;;7.07;;
9176;SDS011;4623;54.310;10.112;2023-02-10T03:42:01;16.63;;;5.40;;
9176;SDS011;4623;54.310;10.112;2023-02-10T03:44:27;15.87;;;5.80;;
9176;SDS011;4623;54.310;10.112;2023-02-10T03:46:52;17.10;;;5.60;;
9176;SDS011;4623;54.310;10.112;2023-02-10T03:49:18;20.13;;;6.20;;
9176;SDS011;4623;54.310;10.112;2023-02-10T03:51:44;17.97;;;5.53;;
9176;SDS011;4623;54.310;10.112;2023-02-10T03:54:09;14.10;;;5.17;;
9176;SDS011;4623;54.310;10.112;2023-02-10T03:56:35;17.87;;;5.17;;
9176;SDS011;4623;54.310;10.112;2023-02-10T03:59:01;14.57;;;4.73;;
9176;SDS011;4623;54.310;10.112;2023-02-10T04:01:27;19.80;;;6.07;;
9176;SDS011;4623;54.310;10.112;2023-02-10T04:03:53;16.60;;;5.77;;
9176;SDS011;4623;54.310;10.112;2023-02-10T04:06:19;16.83;;;5.53;;
9176;SDS011;4623;54.310;10.112;2023-02-10T04:08:45;17.63;;;5.53;;
9176;SDS011;4623;54.310;10.112;2023-02-10T04:11:11;24.90;;;6.30;;
9176;SDS011;4623;54.310;10.112;2023-02-10T04:13:38;15.40;;;5.30;;
9176;SDS011;4623;54.310;10.112;2023-02-10T04:16:04;22.53;;;6.27;;
9176;SDS011;4623;54.310;10.112;2023-02-10T04:18:35;14.47;;;5.30;;
9176;SDS011;4623;54.310;10.112;2023-02-10T04:21:02;15.30;;;5.23;;
9176;SDS011;4623;54.310;10.112;2023-02-10T04:23:28;24.03;;;7.00;;
9176;SDS011;4623;54.310;10.112;2023-02-10T04:25:54;19.43;;;6.40;;
9176;SDS011;4623;54.310;10.112;2023-02-10T04:28:20;17.93;;;5.20;;
9176;SDS011;4623;54.310;10.112;2023-02-10T04:30:49;21.67;;;5.87;;
9176;SDS011;4623;54.310;10.112;2023-02-10T04:33:16;26.40;;;7.47;;
9176;SDS011;4623;54.310;10.112;2023-02-10T04:35:41;15.80;;;6.20;;
9176;SDS011;4623;54.310;10.112;2023-02-10T04:38:09;15.80;;;6.00;;
9176;SDS011;4623;54.310;10.112;2023-02-10T04:40:35;19.47;;;6.60;;
9176;SDS011;4623;54.310;10.112;2023-02-10T04:43:00;21.27;;;6.93;;
9176;SDS011;4623;54.310;10.112;2023-02-10T04:45:26;19.93;;;6.03;;
9176;SDS011;4623;54.310;10.112;2023-02-10T04:47:51;23.50;;;7.07;;
9176;SDS011;4623;54.310;10.112;2023-02-10T04:50:17;18.40;;;7.30;;
9176;SDS011;4623;54.310;10.112;2023-02-10T04:52:42;14.10;;;6.13;;
9176;SDS011;4623;54.310;10.112;2023-02-10T04:55:08;20.03;;;5.63;;
9176;SDS011;4623;54.310;10.112;2023-02-10T04:57:33;22.50;;;6.70;;
9176;SDS011;4623;54.310;10.112;2023-02-10T04:59:59;20.97;;;7.47;;
9176;SDS011;4623;54.310;10.112;2023-02-10T05:02:24;16.70;;;6.30;;
9176;SDS011;4623;54.310;10.112;2023-02-10T05:04:50;17.97;;;7.70;;
9176;SDS011;4623;54.310;10.112;2023-02-10T05:07:15;15.87;;;5.50;;
9176;SDS011;4623;54.310;10.112;2023-02-10T05:09:41;24.37;;;7.80;;
9176;SDS011;4623;54.310;10.112;2023-02-10T05:12:06;27.17;;;8.10;;
9176;SDS011;4623;54.310;10.112;2023-02-10T05:14:32;17.60;;;6.53;;
9176;SDS011;4623;54.310;10.112;2023-02-10T05:16:57;19.77;;;7.00;;
9176;SDS011;4623;54.310;10.112;2023-02-10T05:19:23;20.20;;;6.97;;
9176;SDS011;4623;54.310;10.112;2023-02-10T05:21:48;20.93;;;7.97;;
9176;SDS011;4623;54.310;10.112;2023-02-10T05:24:14;16.17;;;7.30;;
9176;SDS011;4623;54.310;10.112;2023-02-10T05:26:40;20.60;;;8.27;;
9176;SDS011;4623;54.310;10.112;2023-02-10T05:29:05;26.33;;;7.97;;
9176;SDS011;4623;54.310;10.112;2023-02-10T05:31:31;18.10;;;6.67;;
9176;SDS011;4623;54.310;10.112;2023-02-10T05:33:56;26.60;;;8.47;;
9176;SDS011;4623;54.310;10.112;2023-02-10T05:36:22;16.33;;;6.57;;
9176;SDS011;4623;54.310;10.112;2023-02-10T05:38:47;15.70;;;6.43;;
9176;SDS011;4623;54.310;10.112;2023-02-10T05:41:31;24.63;;;8.07;;
9176;SDS011;4623;54.310;10.112;2023-02-10T05:43:57;17.47;;;7.47;;
9176;SDS011;4623;54.310;10.112;2023-02-10T05:46:23;14.97;;;7.37;;
9176;SDS011;4623;54.310;10.112;2023-02-10T05:48:48;16.00;;;7.80;;
9176;SDS011;4623;54.310;10.112;2023-02-10T05:51:14;19.77;;;8.77;;
9176;SDS011;4623;54.310;10.112;2023-02-10T05:53:40;24.13;;;7.57;;
9176;SDS011;4623;54.310;10.112;2023-02-10T05:56:05;24.50;;;9.10;;
9176;SDS011;4623;54.310;10.112;2023-02-10T05:58:31;19.90;;;7.63;;
9176;SDS011;4623;54.310;10.112;2023-02-10T06:00:57;17.73;;;8.03;;
9176;SDS011;4623;54.310;10.112;2023-02-10T06:03:23;17.27;;;8.33;;
9176;SDS011;4623;54.310;10.112;2023-02-10T06:05:49;20.30;;;8.47;;
9176;SDS011;4623;54.310;10.112;2023-02-10T06:08:15;19.60;;;7.87;;
9176;SDS011;4623;54.310;10.112;2023-02-10T06:10:41;20.07;;;8.27;;
9176;SDS011;4623;54.310;10.112;2023-02-10T06:13:06;25.97;;;8.47;;
9176;SDS011;4623;54.310;10.112;2023-02-10T06:15:32;16.87;;;7.20;;
9176;SDS011;4623;54.310;10.112;2023-02-10T06:17:57;24.60;;;9.00;;
9176;SDS011;4623;54.310;10.112;2023-02-10T06:20:23;21.73;;;8.23;;
9176;SDS011;4623;54.310;10.112;2023-02-10T06:22:48;20.93;;;7.40;;
9176;SDS011;4623;54.310;10.112;2023-02-10T06:25:14;22.53;;;8.17;;
9176;SDS011;4623;54.310;10.112;2023-02-10T06:27:39;20.67;;;8.30;;
9176;SDS011;4623;54.310;10.112;2023-02-10T06:30:05;26.77;;;8.63;;
9176;SDS011;4623;54.310;10.112;2023-02-10T06:32:31;18.30;;;7.33;;
9176;SDS011;4623;54.310;10.112;2023-02-10T06:34:56;18.20;;;7.80;;
9176;SDS011;4623;54.310;10.112;2023-02-10T06:37:22;21.63;;;8.17;;
9176;SDS011;4623;54.310;10.112;2023-02-10T06:39:48;16.03;;;6.83;;
9176;SDS011;4623;54.310;10.112;2023-02-10T06:42:13;18.13;;;6.60;;
9176;SDS011;4623;54.310;10.112;2023-02-10T06:44:39;21.27;;;7.47;;
9176;SDS011;4623;54.310;10.112;2023-02-10T06:47:04;22.43;;;6.73;;
9176;SDS011;4623;54.310;10.112;2023-02-10T06:49:30;18.93;;;7.47;;
9176;SDS011;4623;54.310;10.112;2023-02-10T06:51:55;18.83;;;7.50;;
9176;SDS011;4623;54.310;10.112;2023-02-10T06:54:21;21.03;;;6.73;;
9176;SDS011;4623;54.310;10.112;2023-02-10T06:56:47;29.47;;;8.50;;
9176;SDS011;4623;54.310;10.112;2023-02-10T06:59:13;19.30;;;7.87;;
9176;SDS011;4623;54.310;10.112;2023-02-10T07:01:38;24.60;;;8.70;;
9176;SDS011;4623;54.310;10.112;2023-02-10T07:04:04;22.93;;;8.13;;
9176;SDS011;4623;54.310;10.112;2023-02-10T07:06:30;24.50;;;7.90;;
9176;SDS011;4623;54.310;10.112;2023-02-10T07:08:55;16.83;;;6.90;;
9176;SDS011;4623;54.310;10.112;2023-02-10T07:11:21;20.20;;;8.27;;
9176;SDS011;4623;54.310;10.112;2023-02-10T07:13:46;25.00;;;7.87;;
9176;SDS011;4623;54.310;10.112;2023-02-10T07:16:12;21.37;;;7.50;;
9176;SDS011;4623;54.310;10.112;2023-02-10T07:18:40;25.20;;;8.67;;
9176;SDS011;4623;54.310;10.112;2023-02-10T07:21:06;26.67;;;9.60;;
9176;SDS011;4623;54.310;10.112;2023-02-10T07:23:31;20.23;;;8.70;;
9176;SDS011;4623;54.310;10.112;2023-02-10T07:25:57;19.80;;;7.60;;
9176;SDS011;4623;54.310;10.112;2023-02-10T07:28:22;23.90;;;8.83;;
9176;SDS011;4623;54.310;10.112;2023-02-10T07:30:48;29.77;;;9.40;;
9176;SDS011;4623;54.310;10.112;2023-02-10T07:33:13;21.80;;;7.90;;
9176;SDS011;4623;54.310;10.112;2023-02-10T07:35:39;28.03;;;9.40;;
9176;SDS011;4623;54.310;10.112;2023-02-10T07:38:04;27.00;;;8.97;;
9176;SDS011;4623;54.310;10.112;2023-02-10T07:40:30;24.10;;;8.00;;
9176;SDS011;4623;54.310;10.112;2023-02-10T07:42:55;21.83;;;8.27;;
9176;SDS011;4623;54.310;10.112;2023-02-10T07:45:21;16.77;;;7.87;;
9176;SDS011;4623;54.310;10.112;2023-02-10T07:47:47;29.03;;;9.63;;
9176;SDS011;4623;54.310;10.112;2023-02-10T07:50:13;24.07;;;8.70;;
9176;SDS011;4623;54.310;10.112;2023-02-10T07:52:39;19.67;;;7.87;;
9176;SDS011;4623;54.310;10.112;2023-02-10T07:55:06;19.83;;;9.00;;
9176;SDS011;4623;54.310;10.112;2023-02-10T07:57:32;23.23;;;9.23;;
9176;SDS011;4623;54.310;10.112;2023-02-10T07:59:58;17.50;;;9.03;;
9176;SDS011;4623;54.310;10.112;2023-02-10T08:02:23;26.37;;;8.93;;
9176;SDS011;4623;54.310;10.112;2023-02-10T08:04:49;25.73;;;8.13;;
9176;SDS011;4623;54.310;10.112;2023-02-10T08:07:17;34.70;;;9.53;;
9176;SDS011;4623;54.310;10.112;2023-02-10T08:09:42;24.03;;;8.50;;
9176;SDS011;4623;54.310;10.112;2023-02-10T08:12:08;21.13;;;9.23;;
9176;SDS011;4623;54.310;10.112;2023-02-10T08:14:33;23.07;;;8.20;;
9176;SDS011;4623;54.310;10.112;2023-02-10T08:16:59;17.27;;;7.73;;
9176;SDS011;4623;54.310;10.112;2023-02-10T08:19:24;21.37;;;8.13;;
9176;SDS011;4623;54.310;10.112;2023-02-10T08:21:50;18.77;;;8.80;;
9176;SDS011;4623;54.310;10.112;2023-02-10T08:24:15;28.30;;;8.93;;
9176;SDS011;4623;54.310;10.112;2023-02-10T08:26:41;16.53;;;7.97;;
9176;SDS011;4623;54.310;10.112;2023-02-10T08:29:07;32.77;;;9.00;;
9176;SDS011;4623;54.310;10.112;2023-02-10T08:31:32;24.33;;;9.33;;
9176;SDS011;4623;54.310;10.112;2023-02-10T08:33:58;25.70;;;9.43;;
9176;SDS011;4623;54.310;10.112;2023-02-10T08:36:23;24.37;;;8.70;;
9176;SDS011;4623;54.310;10.112;2023-02-10T08:38:49;28.83;;;9.50;;
9176;SDS011;4623;54.310;10.112;2023-02-10T08:41:16;25.93;;;9.97;;
9176;SDS011;4623;54.310;10.112;2023-02-10T08:43:42;25.40;;;8.87;;
9176;SDS011;4623;54.310;10.112;2023-02-10T08:46:08;24.17;;;9.37;;
9176;SDS011;4623;54.310;10.112;2023-02-10T08:48:34;18.83;;;8.00;;
9176;SDS011;4623;54.310;10.112;2023-02-10T08:51:00;27.20;;;9.23;;
9176;SDS011;4623;54.310;10.112;2023-02-10T08:53:29;23.97;;;10.37;;
9176;SDS011;4623;54.310;10.112;2023-02-10T08:56:05;23.63;;;8.93;;
9176;SDS011;4623;54.310;10.112;2023-02-10T08:58:33;25.47;;;10.07;;
9176;SDS011;4623;54.310;10.112;2023-02-10T09:00:58;24.07;;;9.73;;
9176;SDS011;4623;54.310;10.112;2023-02-10T09:03:24;19.80;;;8.63;;
9176;SDS011;4623;54.310;10.112;2023-02-10T09:05:51;20.23;;;7.67;;
9176;SDS011;4623;54.310;10.112;2023-02-10T09:08:17;16.43;;;7.97;;
9176;SDS011;4623;54.310;10.112;2023-02-10T09:10:44;22.87;;;7.90;;
9176;SDS011;4623;54.310;10.112;2023-02-10T09:13:10;17.20;;;7.97;;
9176;SDS011;4623;54.310;10.112;2023-02-10T09:15:37;22.30;;;9.00;;
9176;SDS011;4623;54.310;10.112;2023-02-10T09:18:04;19.20;;;8.93;;
9176;SDS011;4623;54.310;10.112;2023-02-10T09:20:31;18.27;;;9.53;;
9176;SDS011;4623;54.310;10.112;2023-02-10T09:22:57;18.37;;;9.27;;
9176;SDS011;4623;54.310;10.112;2023-02-10T09:25:22;19.23;;;8.33;;
9176;SDS011;4623;54.310;10.112;2023-02-10T09:27:48;17.60;;;8.37;;
9176;SDS011;4623;54.310;10.112;2023-02-10T09:30:15;26.50;;;9.90;;
9176;SDS011;4623;54.310;10.112;2023-02-10T09:32:41;23.40;;;9.00;;
9176;SDS011;4623;54.310;10.112;2023-02-10T09:35:06;20.20;;;9.50;;
9176;SDS011;4623;54.310;10.112;2023-02-10T09:37:32;23.90;;;10.07;;
9176;SDS011;4623;54.310;10.112;2023-02-10T09:39:57;20.07;;;9.00;;
9176;SDS011;4623;54.310;10.112;2023-02-10T09:42:29;29.60;;;10.87;;
9176;SDS011;4623;54.310;10.112;2023-02-10T09:45:25;29.90;;;10.50;;
9176;SDS011;4623;54.310;10.112;2023-02-10T09:48:17;20.40;;;8.40;;
9176;SDS011;4623;54.310;10.112;2023-02-10T09:50:55;17.37;;;8.23;;
9176;SDS011;4623;54.310;10.112;2023-02-10T09:53:33;20.97;;;9.27;;
9176;SDS011;4623;54.310;10.112;2023-02-10T09:55:59;28.00;;;9.83;;
9176;SDS011;4623;54.310;10.112;2023-02-10T09:58:30;27.27;;;10.43;;
9176;SDS011;4623;54.310;10.112;2023-02-10T10:01:14;25.50;;;8.60;;
9176;SDS011;4623;54.310;10.112;2023-02-10T10:03:48;22.07;;;9.20;;
9176;SDS011;4623;54.310;10.112;2023-02-10T10:06:31;24.07;;;8.93;;
9176;SDS011;4623;54.310;10.112;2023-02-10T10:11:35;20.47;;;8.53;;
9176;SDS011;4623;54.310;10.112;2023-02-10T10:14:22;21.43;;;8.60;;
9176;SDS011;4623;54.310;10.112;2023-02-10T10:25:39;18.63;;;8.73;;
9176;SDS011;4623;54.310;10.112;2023-02-10T10:28:35;21.80;;;8.00;;
9176;SDS011;4623;54.310;10.112;2023-02-10T10:31:27;26.37;;;8.87;;
9176;SDS011;4623;54.310;10.112;2023-02-10T10:36:36;17.97;;;6.70;;
9176;SDS011;4623;54.310;10.112;2023-02-10T10:39:11;25.50;;;8.80;;
9176;SDS011;4623;54.310;10.112;2023-02-10T10:41:42;19.83;;;8.27;;
9176;SDS011;4623;54.310;10.112;2023-02-10T10:44:10;23.07;;;8.00;;
9176;SDS011;4623;54.310;10.112;2023-02-10T10:46:43;19.07;;;7.83;;
9176;SDS011;4623;54.310;10.112;2023-02-10T10:49:12;19.30;;;7.77;;
9176;SDS011;4623;54.310;10.112;2023-02-10T10:51:39;23.03;;;7.33;;
9176;SDS011;4623;54.310;10.112;2023-02-10T10:54:05;23.20;;;6.87;;
9176;SDS011;4623;54.310;10.112;2023-02-10T10:56:53;19.83;;;7.57;;
9176;SDS011;4623;54.310;10.112;2023-02-10T10:59:25;17.53;;;7.10;;
9176;SDS011;4623;54.310;10.112;2023-02-10T11:01:52;24.33;;;7.40;;
9176;SDS011;4623;54.310;10.112;2023-02-10T11:04:22;24.73;;;7.20;;
9176;SDS011;4623;54.310;10.112;2023-02-10T11:06:50;19.80;;;7.97;;
9176;SDS011;4623;54.310;10.112;2023-02-10T11:09:34;27.03;;;7.23;;
9176;SDS011;4623;54.310;10.112;2023-02-10T11:12:16;21.57;;;6.80;;
9176;SDS011;4623;54.310;10.112;2023-02-10T11:14:48;13.80;;;5.97;;
9176;SDS011;4623;54.310;10.112;2023-02-10T11:17:32;21.13;;;7.87;;
9176;SDS011;4623;54.310;10.112;2023-02-10T11:22:35;18.30;;;7.07;;
9176;SDS011;4623;54.310;10.112;2023-02-10T11:25:03;16.90;;;7.13;;
9176;SDS011;4623;54.310;10.112;2023-02-10T11:27:55;14.93;;;6.43;;
9176;SDS011;4623;54.310;10.112;2023-02-10T11:30:32;21.23;;;6.90;;
9176;SDS011;4623;54.310;10.112;2023-02-10T11:33:00;23.37;;;7.70;;
9176;SDS011;4623;54.310;10.112;2023-02-10T11:35:28;23.90;;;7.30;;
9176;SDS011;4623;54.310;10.112;2023-02-10T11:38:03;18.03;;;6.93;;
9176;SDS011;4623;54.310;10.112;2023-02-10T11:40:38;23.83;;;7.47;;
9176;SDS011;4623;54.310;10.112;2023-02-10T11:43:14;18.67;;;5.60;;
9176;SDS011;4623;54.310;10.112;2023-02-10T11:45:50;17.57;;;7.63;;
9176;SDS011;4623;54.310;10.112;2023-02-10T11:48:19;17.83;;;6.83;;
9176;SDS011;4623;54.310;10.112;2023-02-10T11:51:00;19.67;;;8.10;;
9176;SDS011;4623;54.310;10.112;2023-02-10T11:53:31;15.47;;;6.03;;
9176;SDS011;4623;54.310;10.112;2023-02-10T11:56:03;12.77;;;5.77;;
9176;SDS011;4623;54.310;10.112;2023-02-10T12:07:07;19.03;;;7.40;;
9176;SDS011;4623;54.310;10.112;2023-02-10T12:12:19;22.40;;;8.00;;
9176;SDS011;4623;54.310;10.112;2023-02-10T12:15:03;16.87;;;7.93;;
9176;SDS011;4623;54.310;10.112;2023-02-10T12:17:52;15.73;;;6.50;;
9176;SDS011;4623;54.310;10.112;2023-02-10T12:23:26;20.60;;;7.40;;
9176;SDS011;4623;54.310;10.112;2023-02-10T12:26:21;21.17;;;7.40;;
9176;SDS011;4623;54.310;10.112;2023-02-10T12:29:40;15.63;;;6.90;;
9176;SDS011;4623;54.310;10.112;2023-02-10T12:35:22;14.67;;;6.63;;
9176;SDS011;4623;54.310;10.112;2023-02-10T12:40:47;17.03;;;7.90;;
9176;SDS011;4623;54.310;10.112;2023-02-10T12:46:22;14.53;;;6.47;;
9176;SDS011;4623;54.310;10.112;2023-02-10T12:54:19;13.37;;;6.40;;
9176;SDS011;4623;54.310;10.112;2023-02-10T12:56:46;12.10;;;5.80;;
9176;SDS011;4623;54.310;10.112;2023-02-10T12:59:29;13.17;;;6.37;;
9176;SDS011;4623;54.310;10.112;2023-02-10T13:02:45;11.13;;;5.50;;
9176;SDS011;4623;54.310;10.112;2023-02-10T13:05:16;12.50;;;6.27;;
9176;SDS011;4623;54.310;10.112;2023-02-10T13:07:56;18.97;;;6.30;;
9176;SDS011;4623;54.310;10.112;2023-02-10T13:10:28;11.87;;;5.10;;
9176;SDS011;4623;54.310;10.112;2023-02-10T13:13:02;14.40;;;6.60;;
9176;SDS011;4623;54.310;10.112;2023-02-10T13:15:32;12.63;;;6.00;;
9176;SDS011;4623;54.310;10.112;2023-02-10T13:18:17;15.60;;;6.53;;
9176;SDS011;4623;54.310;10.112;2023-02-10T13:21:04;19.33;;;7.33;;
9176;SDS011;4623;54.310;10.112;2023-02-10T13:23:43;19.03;;;6.40;;
9176;SDS011;4623;54.310;10.112;2023-02-10T13:26:17;22.53;;;6.70;;
9176;SDS011;4623;54.310;10.112;2023-02-10T13:32:05;14.30;;;7.13;;
9176;SDS011;4623;54.310;10.112;2023-02-10T13:34:43;15.93;;;6.77;;
9176;SDS011;4623;54.310;10.112;2023-02-10T13:40:12;16.53;;;7.97;;
9176;SDS011;4623;54.310;10.112;2023-02-10T13:42:51;13.43;;;6.93;;
9176;SDS011;4623;54.310;10.112;2023-02-10T13:45:27;15.47;;;7.10;;
9176;SDS011;4623;54.310;10.112;2023-02-10T13:48:00;15.37;;;6.87;;
9176;SDS011;4623;54.310;10.112;2023-02-10T13:50:48;16.93;;;7.40;;
9176;SDS011;4623;54.310;10.112;2023-02-10T13:58:54;16.33;;;7.37;;
9176;SDS011;4623;54.310;10.112;2023-02-10T14:01:40;14.40;;;6.50;;
9176;SDS011;4623;54.310;10.112;2023-02-10T14:06:44;14.40;;;6.73;;
9176;SDS011;4623;54.310;10.112;2023-02-10T14:09:21;16.30;;;6.13;;
9176;SDS011;4623;54.310;10.112;2023-02-10T14:11:53;15.53;;;7.47;;
9176;SDS011;4623;54.310;10.112;2023-02-10T14:14:20;17.57;;;7.00;;
9176;SDS011;4623;54.310;10.112;2023-02-10T14:16:52;14.20;;;6.43;;
9176;SDS011;4623;54.310;10.112;2023-02-10T14:19:32;14.67;;;6.90;;
9176;SDS011;4623;54.310;10.112;2023-02-10T14:22:00;17.03;;;6.90;;
9176;SDS011;4623;54.310;10.112;2023-02-10T14:24:27;17.53;;;7.87;;
9176;SDS011;4623;54.310;10.112;2023-02-10T14:27:08;15.33;;;6.90;;
9176;SDS011;4623;54.310;10.112;2023-02-10T14:29:37;18.03;;;6.93;;
9176;SDS011;4623;54.310;10.112;2023-02-10T14:32:11;20.13;;;8.20;;
9176;SDS011;4623;54.310;10.112;2023-02-10T14:34:38;21.50;;;7.87;;
9176;SDS011;4623;54.310;10.112;2023-02-10T14:37:18;20.97;;;7.57;;
9176;SDS011;4623;54.310;10.112;2023-02-10T14:39:49;17.07;;;6.90;;
9176;SDS011;4623;54.310;10.112;2023-02-10T14:42:26;14.20;;;6.50;;
9176;SDS011;4623;54.310;10.112;2023-02-10T14:44:55;13.40;;;6.40;;
9176;SDS011;4623;54.310;10.112;2023-02-10T14:47:24;18.73;;;7.50;;
9176;SDS011;4623;54.310;10.112;2023-02-10T14:49:54;12.33;;;6.00;;
9176;SDS011;4623;54.310;10.112;2023-02-10T14:54:51;10.37;;;5.63;;
9176;SDS011;4623;54.310;10.112;2023-02-10T14:57:18;16.80;;;7.00;;
9176;SDS011;4623;54.310;10.112;2023-02-10T14:59:51;17.53;;;6.27;;
9176;SDS011;4623;54.310;10.112;2023-02-10T15:02:22;13.67;;;6.43;;
9176;SDS011;4623;54.310;10.112;2023-02-10T15:04:51;17.00;;;6.77;;
9176;SDS011;4623;54.310;10.112;2023-02-10T15:07:21;10.30;;;5.97;;
9176;SDS011;4623;54.310;10.112;2023-02-10T15:09:49;16.47;;;5.90;;
9176;SDS011;4623;54.310;10.112;2023-02-10T15:12:16;13.97;;;5.93;;
9176;SDS011;4623;54.310;10.112;2023-02-10T15:14:51;14.93;;;6.43;;
9176;SDS011;4623;54.310;10.112;2023-02-10T15:17:25;17.00;;;5.87;;
9176;SDS011;4623;54.310;10.112;2023-02-10T15:20:00;10.83;;;6.17;;
9176;SDS011;4623;54.310;10.112;2023-02-10T15:22:40;16.67;;;6.93;;
9176;SDS011;4623;54.310;10.112;2023-02-10T15:25:23;11.70;;;6.43;;
9176;SDS011;4623;54.310;10.112;2023-02-10T15:27:53;15.07;;;6.47;;
9176;SDS011;4623;54.310;10.112;2023-02-10T15:30:21;14.40;;;7.17;;
9176;SDS011;4623;54.310;10.112;2023-02-10T15:32:53;15.67;;;6.67;;
9176;SDS011;4623;54.310;10.112;2023-02-10T15:35:21;13.77;;;6.73;;
9176;SDS011;4623;54.310;10.112;2023-02-10T15:37:47;12.40;;;7.73;;
9176;SDS011;4623;54.310;10.112;2023-02-10T15:42:54;12.77;;;7.77;;
9176;SDS011;4623;54.310;10.112;2023-02-10T15:45:27;14.40;;;7.40;;
9176;SDS011;4623;54.310;10.112;2023-02-10T15:50:27;14.27;;;7.07;;
9176;SDS011;4623;54.310;10.112;2023-02-10T15:52:54;14.27;;;7.00;;
9176;SDS011;4623;54.310;10.112;2023-02-10T15:55:29;14.23;;;6.40;;
9176;SDS011;4623;54.310;10.112;2023-02-10T15:57:56;17.57;;;7.07;;
9176;SDS011;4623;54.310;10.112;2023-02-10T16:00:24;11.73;;;5.73;;
9176;SDS011;4623;54.310;10.112;2023-02-10T16:03:10;11.63;;;6.17;;
9176;SDS011;4623;54.310;10.112;2023-02-10T16:05:36;11.13;;;5.13;;
9176;SDS011;4623;54.310;10.112;2023-02-10T16:08:09;10.07;;;5.30;;
9176;SDS011;4623;54.310;10.112;2023-02-10T16:10:47;14.03;;;6.13;;
9176;SDS011;4623;54.310;10.112;2023-02-10T16:13:13;12.13;;;5.50;;
9176;SDS011;4623;54.310;10.112;2023-02-10T16:15:40;10.30;;;5.67;;
9176;SDS011;4623;54.310;10.112;2023-02-10T16:18:06;10.53;;;5.47;;
9176;SDS011;4623;54.310;10.112;2023-02-10T16:20:35;10.70;;;6.03;;
9176;SDS011;4623;54.310;10.112;2023-02-10T16:23:00;9.93;;;5.53;;
9176;SDS011;4623;54.310;10.112;2023-02-10T16:25:27;16.83;;;6.73;;
9176;SDS011;4623;54.310;10.112;2023-02-10T16:27:52;6.37;;;5.13;;
9176;SDS011;4623;54.310;10.112;2023-02-10T16:30:20;10.63;;;5.97;;